Chrisanthi — SX7108 — position and weather

sailwx.info

Track history (hours):
 
Tides and Currents Weather Stations Pressure Air Temp Water Temp Dewpoint Dewpoint Depression Visibility Wind Speed Wind Dir Waves Ship Positions

Chrisanthi

Last reported at 2017-Aug-20 03:11 UTC. Time now 2017-Aug-23 13:44 UTC.
Position N 36°59' E 025°21'.

Length 56 m; draft 3.9 m.

Type: Ship (hazmat cat A). MMSI: 237009100.

Date/timePositionNaut miles runAvg speedWind from/ knotsBaromVisibWave heightAir tempDewpointWater temp
2017-Aug-20 03:11N 36°59' E 025°21'210.3
2017-Aug-20 03:00N 37°01' E 025°21'5 9.8
2017-Aug-20 02:30N 37°06' E 025°20'2 3.1
2017-Aug-20 02:00N 37°06' E 025°22'0 0.0
2017-Aug-20 01:30N 37°06' E 025°22'0 0.0
2017-Aug-20 01:00N 37°06' E 025°22'0 0.0
2017-Aug-20 00:30N 37°06' E 025°22'0 0.0
2017-Aug-20 00:00N 37°06' E 025°22'0 0.0
2017-Aug-19 23:30N 37°06' E 025°22'0 0.0
2017-Aug-19 23:00N 37°06' E 025°22'0 0.0
2017-Aug-19 22:30N 37°06' E 025°22'0 0.0
2017-Aug-19 22:00N 37°06' E 025°22'0 0.0
2017-Aug-19 21:30N 37°06' E 025°22'0 0.0
2017-Aug-19 21:00N 37°06' E 025°22'0 0.0
2017-Aug-19 20:30N 37°06' E 025°22'0 0.7
2017-Aug-19 20:00N 37°07' E 025°22'0 0.3
2017-Aug-19 19:30N 37°06' E 025°22'0 0.2
2017-Aug-19 19:00N 37°06' E 025°22'0 0.6
2017-Aug-19 18:30N 37°06' E 025°22'0 0.0
2017-Aug-19 18:00N 37°06' E 025°22'0 0.0
2017-Aug-19 17:30N 37°06' E 025°22'0 0.0
2017-Aug-19 17:00N 37°06' E 025°22'2 5.0
2017-Aug-19 16:30N 37°08' E 025°20'4 9.0
2017-Aug-19 16:00N 37°10' E 025°15'5 9.3
2017-Aug-19 15:25N 37°07' E 025°09'2 0.2
2017-Aug-19 04:32N 37°05' E 025°08'0 3.0
2017-Aug-19 04:29N 37°05' E 025°08'4 9.1
2017-Aug-19 04:00N 37°08' E 025°04'5 9.4
2017-Aug-19 03:31N 37°10' E 024°58'5 9.7
2017-Aug-19 03:00N 37°13' E 024°54'5 9.7
2017-Aug-19 02:31N 37°16' E 024°49'46 9.7
2017-Aug-18 21:45N 37°36' E 023°57'510.4
2017-Aug-18 21:17N 37°38' E 023°51'310.0
2017-Aug-18 21:00N 37°39' E 023°48'5 9.6
2017-Aug-18 20:31N 37°41' E 023°42'510.0
2017-Aug-18 20:01N 37°45' E 023°39'5 9.8
2017-Aug-18 19:31N 37°49' E 023°35'510.0
2017-Aug-18 19:00N 37°50' E 023°29'5 9.9
2017-Aug-18 18:30N 37°51' E 023°23'5 9.9
2017-Aug-18 18:00N 37°53' E 023°16'5 0.2
2017-Aug-17 14:40N 37°48' E 023°13'210.0
2017-Aug-17 14:30N 37°46' E 023°14'5 9.8
2017-Aug-17 13:58N 37°42' E 023°18'4 9.3
2017-Aug-17 13:31N 37°40' E 023°22'5 9.9
2017-Aug-17 13:01N 37°38' E 023°28'9 9.6
2017-Aug-17 12:06N 37°31' E 023°35'  
2017-Aug-10 12:16N 37°03' E 025°02'310.0
2017-Aug-10 12:00N 37°04' E 025°05'3 0.3
2017-Aug-10 04:02N 37°05' E 025°08'1 8.6
2017-Aug-10 03:55N 37°06' E 025°07'410.0
2017-Aug-10 03:28N 37°09' E 025°11'  
Track history (hours):
 
Tides and Currents Weather Stations Pressure Air Temp Water Temp Dewpoint Dewpoint Depression Visibility Wind Speed Wind Dir Waves Ship Positions

Chrisanthi

Last reported at 2017-Aug-20 03:11 UTC. Time now 2017-Aug-23 13:44 UTC.
Position N 36°59' E 025°21'.

Length 56 m; draft 3.9 m.

Type: Ship (hazmat cat A). MMSI: 237009100.

Date/timePositionNaut miles runAvg speedWind from/ knotsBaromVisibWave heightAir tempDewpointWater temp
2017-Aug-20 03:11N 36°59' E 025°21'210.3
2017-Aug-20 03:00N 37°01' E 025°21'5 9.8
2017-Aug-20 02:30N 37°06' E 025°20'2 3.1
2017-Aug-20 02:00N 37°06' E 025°22'0 0.0
2017-Aug-20 01:30N 37°06' E 025°22'0 0.0
2017-Aug-20 01:00N 37°06' E 025°22'0 0.0
2017-Aug-20 00:30N 37°06' E 025°22'0 0.0
2017-Aug-20 00:00N 37°06' E 025°22'0 0.0
2017-Aug-19 23:30N 37°06' E 025°22'0 0.0
2017-Aug-19 23:00N 37°06' E 025°22'0 0.0
2017-Aug-19 22:30N 37°06' E 025°22'0 0.0
2017-Aug-19 22:00N 37°06' E 025°22'0 0.0
2017-Aug-19 21:30N 37°06' E 025°22'0 0.0
2017-Aug-19 21:00N 37°06' E 025°22'0 0.0
2017-Aug-19 20:30N 37°06' E 025°22'0 0.7
2017-Aug-19 20:00N 37°07' E 025°22'0 0.3
2017-Aug-19 19:30N 37°06' E 025°22'0 0.2
2017-Aug-19 19:00N 37°06' E 025°22'0 0.6
2017-Aug-19 18:30N 37°06' E 025°22'0 0.0
2017-Aug-19 18:00N 37°06' E 025°22'0 0.0
2017-Aug-19 17:30N 37°06' E 025°22'0 0.0
2017-Aug-19 17:00N 37°06' E 025°22'2 5.0
2017-Aug-19 16:30N 37°08' E 025°20'4 9.0
2017-Aug-19 16:00N 37°10' E 025°15'5 9.3
2017-Aug-19 15:25N 37°07' E 025°09'2 0.2
2017-Aug-19 04:32N 37°05' E 025°08'0 3.0
2017-Aug-19 04:29N 37°05' E 025°08'4 9.1
2017-Aug-19 04:00N 37°08' E 025°04'5 9.4
2017-Aug-19 03:31N 37°10' E 024°58'5 9.7
2017-Aug-19 03:00N 37°13' E 024°54'5 9.7
2017-Aug-19 02:31N 37°16' E 024°49'46 9.7
2017-Aug-18 21:45N 37°36' E 023°57'510.4
2017-Aug-18 21:17N 37°38' E 023°51'310.0
2017-Aug-18 21:00N 37°39' E 023°48'5 9.6
2017-Aug-18 20:31N 37°41' E 023°42'510.0
2017-Aug-18 20:01N 37°45' E 023°39'5 9.8
2017-Aug-18 19:31N 37°49' E 023°35'510.0
2017-Aug-18 19:00N 37°50' E 023°29'5 9.9
2017-Aug-18 18:30N 37°51' E 023°23'5 9.9
2017-Aug-18 18:00N 37°53' E 023°16'5 0.2
2017-Aug-17 14:40N 37°48' E 023°13'210.0
2017-Aug-17 14:30N 37°46' E 023°14'5 9.8
2017-Aug-17 13:58N 37°42' E 023°18'4 9.3
2017-Aug-17 13:31N 37°40' E 023°22'5 9.9
2017-Aug-17 13:01N 37°38' E 023°28'9 9.6
2017-Aug-17 12:06N 37°31' E 023°35'  
2017-Aug-10 12:16N 37°03' E 025°02'310.0
2017-Aug-10 12:00N 37°04' E 025°05'3 0.3
2017-Aug-10 04:02N 37°05' E 025°08'1 8.6
2017-Aug-10 03:55N 37°06' E 025°07'410.0
2017-Aug-10 03:28N 37°09' E 025°11'  

Dump ship's entire track history